LFRZ/SNR METAR and TAF weather

Enter ICAO airport designator
Station Type Date Time Source
LFRZ METAR 2019/04/20 18:30 UTC NOAA

LFRZ 201830Z AUTO 04005KT CAVOK 21/11 Q1022 NOSIG


Station Type Date Time Source
LFRZ Decoded METAR 2019/04/20 18:30 UTC NOAA

St-Nazaire, France (LFRZ) 47-19N 002-10W 4M
Apr 20, 2019 - 02:30 PM EDT / 2019.04.20 1830 UTC
Wind: from the NE (040 degrees) at 6 MPH (5 KT):0
Visibility: greater than 7 mile(s):0
Temperature: 69 F (21 C)
Dew Point: 51 F (11 C)
Relative Humidity: 52%
Pressure (altimeter): 30.18 in. Hg (1022 hPa)
ob: LFRZ 201830Z AUTO 04005KT CAVOK 21/11 Q1022 NOSIG
cycle: 18

Station Type Date Time Source
LFRZ TAF 2019/04/20 18:21 UTC NOAA

TAF LFRZ 201700Z 2018/2118 05012KT CAVOK PROB30
TEMPO 2018/2020 -SHRA PROB30
TEMPO 2117/2118 -SHRA

Example: see airport list